sensor_id;sensor_type;location;lat;lon;timestamp;P1;durP1;ratioP1;P2;durP2;ratioP2
36445;SDS011;22472;50.848;-1.216;2023-12-22T00:00:16;13.60;;;2.25;;
36445;SDS011;22472;50.848;-1.216;2023-12-22T00:02:44;13.80;;;2.00;;
36445;SDS011;22472;50.848;-1.216;2023-12-22T00:05:11;15.90;;;2.50;;
36445;SDS011;22472;50.848;-1.216;2023-12-22T00:07:38;13.85;;;2.25;;
36445;SDS011;22472;50.848;-1.216;2023-12-22T00:10:06;11.25;;;1.70;;
36445;SDS011;22472;50.848;-1.216;2023-12-22T00:12:34;12.30;;;1.83;;
36445;SDS011;22472;50.848;-1.216;2023-12-22T00:15:05;16.17;;;1.98;;
36445;SDS011;22472;50.848;-1.216;2023-12-22T00:17:32;14.65;;;1.85;;
36445;SDS011;22472;50.848;-1.216;2023-12-22T00:19:59;12.68;;;1.73;;
36445;SDS011;22472;50.848;-1.216;2023-12-22T00:22:28;11.00;;;1.42;;
36445;SDS011;22472;50.848;-1.216;2023-12-22T00:24:54;10.93;;;1.80;;
36445;SDS011;22472;50.848;-1.216;2023-12-22T00:27:21;12.63;;;1.45;;
36445;SDS011;22472;50.848;-1.216;2023-12-22T00:29:49;14.45;;;1.88;;
36445;SDS011;22472;50.848;-1.216;2023-12-22T00:32:17;13.10;;;1.65;;
36445;SDS011;22472;50.848;-1.216;2023-12-22T00:34:44;7.38;;;1.15;;
36445;SDS011;22472;50.848;-1.216;2023-12-22T00:37:12;11.00;;;1.30;;
36445;SDS011;22472;50.848;-1.216;2023-12-22T00:39:39;10.55;;;1.38;;
36445;SDS011;22472;50.848;-1.216;2023-12-22T00:42:06;7.72;;;1.08;;
36445;SDS011;22472;50.848;-1.216;2023-12-22T00:44:34;9.50;;;0.90;;
36445;SDS011;22472;50.848;-1.216;2023-12-22T00:47:01;5.43;;;0.70;;
36445;SDS011;22472;50.848;-1.216;2023-12-22T00:49:30;5.90;;;0.68;;
36445;SDS011;22472;50.848;-1.216;2023-12-22T00:51:57;6.25;;;0.70;;
36445;SDS011;22472;50.848;-1.216;2023-12-22T00:54:25;7.30;;;0.70;;
36445;SDS011;22472;50.848;-1.216;2023-12-22T00:56:53;7.35;;;0.90;;
36445;SDS011;22472;50.848;-1.216;2023-12-22T00:59:20;6.20;;;0.73;;
36445;SDS011;22472;50.848;-1.216;2023-12-22T01:01:47;7.43;;;0.80;;
36445;SDS011;22472;50.848;-1.216;2023-12-22T01:04:14;7.20;;;0.68;;
36445;SDS011;22472;50.848;-1.216;2023-12-22T01:06:43;7.40;;;0.70;;
36445;SDS011;22472;50.848;-1.216;2023-12-22T01:09:10;7.43;;;0.70;;
36445;SDS011;22472;50.848;-1.216;2023-12-22T01:11:37;8.05;;;1.02;;
36445;SDS011;22472;50.848;-1.216;2023-12-22T01:14:05;8.55;;;1.00;;
36445;SDS011;22472;50.848;-1.216;2023-12-22T01:16:32;8.40;;;0.85;;
36445;SDS011;22472;50.848;-1.216;2023-12-22T01:18:59;7.13;;;0.88;;
36445;SDS011;22472;50.848;-1.216;2023-12-22T01:21:26;8.40;;;0.90;;
36445;SDS011;22472;50.848;-1.216;2023-12-22T01:23:55;4.47;;;0.57;;
36445;SDS011;22472;50.848;-1.216;2023-12-22T01:26:24;8.50;;;1.02;;
36445;SDS011;22472;50.848;-1.216;2023-12-22T01:28:51;8.98;;;0.80;;
36445;SDS011;22472;50.848;-1.216;2023-12-22T01:31:18;7.95;;;1.23;;
36445;SDS011;22472;50.848;-1.216;2023-12-22T01:33:45;8.80;;;0.95;;
36445;SDS011;22472;50.848;-1.216;2023-12-22T01:36:13;10.40;;;1.02;;
36445;SDS011;22472;50.848;-1.216;2023-12-22T01:38:40;7.10;;;0.80;;
36445;SDS011;22472;50.848;-1.216;2023-12-22T01:41:08;6.88;;;0.73;;
36445;SDS011;22472;50.848;-1.216;2023-12-22T01:43:36;6.88;;;0.95;;
36445;SDS011;22472;50.848;-1.216;2023-12-22T01:46:03;8.63;;;1.00;;
36445;SDS011;22472;50.848;-1.216;2023-12-22T01:48:30;8.82;;;0.82;;
36445;SDS011;22472;50.848;-1.216;2023-12-22T01:50:58;6.18;;;0.77;;
36445;SDS011;22472;50.848;-1.216;2023-12-22T01:53:26;9.73;;;1.30;;
36445;SDS011;22472;50.848;-1.216;2023-12-22T01:55:54;11.45;;;1.05;;
36445;SDS011;22472;50.848;-1.216;2023-12-22T01:58:23;6.95;;;0.75;;
36445;SDS011;22472;50.848;-1.216;2023-12-22T02:00:51;10.27;;;0.70;;
36445;SDS011;22472;50.848;-1.216;2023-12-22T02:03:19;10.55;;;1.60;;
36445;SDS011;22472;50.848;-1.216;2023-12-22T02:06:41;6.50;;;0.85;;
36445;SDS011;22472;50.848;-1.216;2023-12-22T02:09:09;11.05;;;1.08;;
36445;SDS011;22472;50.848;-1.216;2023-12-22T02:11:37;8.52;;;0.80;;
36445;SDS011;22472;50.848;-1.216;2023-12-22T02:14:05;13.75;;;1.10;;
36445;SDS011;22472;50.848;-1.216;2023-12-22T02:16:40;8.75;;;0.80;;
36445;SDS011;22472;50.848;-1.216;2023-12-22T02:19:10;9.95;;;0.70;;
36445;SDS011;22472;50.848;-1.216;2023-12-22T02:24:25;5.82;;;0.68;;
36445;SDS011;22472;50.848;-1.216;2023-12-22T02:26:53;7.03;;;0.88;;
36445;SDS011;22472;50.848;-1.216;2023-12-22T02:29:21;6.38;;;0.75;;
36445;SDS011;22472;50.848;-1.216;2023-12-22T02:31:50;4.55;;;0.50;;
36445;SDS011;22472;50.848;-1.216;2023-12-22T02:34:19;9.02;;;0.95;;
36445;SDS011;22472;50.848;-1.216;2023-12-22T02:36:47;6.22;;;0.55;;
36445;SDS011;22472;50.848;-1.216;2023-12-22T02:39:14;6.47;;;0.95;;
36445;SDS011;22472;50.848;-1.216;2023-12-22T02:41:44;6.45;;;0.50;;
36445;SDS011;22472;50.848;-1.216;2023-12-22T02:44:12;6.47;;;0.60;;
36445;SDS011;22472;50.848;-1.216;2023-12-22T02:46:39;6.35;;;0.73;;
36445;SDS011;22472;50.848;-1.216;2023-12-22T02:49:08;8.05;;;0.80;;
36445;SDS011;22472;50.848;-1.216;2023-12-22T02:51:35;10.48;;;0.88;;
36445;SDS011;22472;50.848;-1.216;2023-12-22T02:54:03;9.57;;;0.95;;
36445;SDS011;22472;50.848;-1.216;2023-12-22T02:56:30;6.13;;;0.60;;
36445;SDS011;22472;50.848;-1.216;2023-12-22T02:58:58;6.63;;;0.60;;
36445;SDS011;22472;50.848;-1.216;2023-12-22T03:01:26;9.30;;;0.77;;
36445;SDS011;22472;50.848;-1.216;2023-12-22T03:06:39;10.18;;;0.77;;
36445;SDS011;22472;50.848;-1.216;2023-12-22T03:09:06;4.20;;;0.68;;
36445;SDS011;22472;50.848;-1.216;2023-12-22T03:11:33;6.40;;;0.70;;
36445;SDS011;22472;50.848;-1.216;2023-12-22T03:14:02;9.10;;;0.88;;
36445;SDS011;22472;50.848;-1.216;2023-12-22T03:16:29;6.70;;;0.70;;
36445;SDS011;22472;50.848;-1.216;2023-12-22T03:18:56;4.22;;;0.43;;
36445;SDS011;22472;50.848;-1.216;2023-12-22T03:21:24;5.35;;;0.50;;
36445;SDS011;22472;50.848;-1.216;2023-12-22T03:23:51;7.10;;;0.77;;
36445;SDS011;22472;50.848;-1.216;2023-12-22T03:26:18;5.75;;;0.52;;
36445;SDS011;22472;50.848;-1.216;2023-12-22T03:28:45;4.63;;;0.60;;
36445;SDS011;22472;50.848;-1.216;2023-12-22T03:31:14;3.47;;;0.40;;
36445;SDS011;22472;50.848;-1.216;2023-12-22T03:34:00;7.93;;;0.77;;
36445;SDS011;22472;50.848;-1.216;2023-12-22T03:36:27;7.35;;;0.80;;
36445;SDS011;22472;50.848;-1.216;2023-12-22T03:38:54;7.53;;;0.57;;
36445;SDS011;22472;50.848;-1.216;2023-12-22T03:41:22;5.30;;;0.55;;
36445;SDS011;22472;50.848;-1.216;2023-12-22T03:43:49;8.30;;;0.80;;
36445;SDS011;22472;50.848;-1.216;2023-12-22T03:46:18;7.93;;;0.75;;
36445;SDS011;22472;50.848;-1.216;2023-12-22T03:48:45;7.07;;;0.70;;
36445;SDS011;22472;50.848;-1.216;2023-12-22T03:51:12;5.35;;;0.50;;
36445;SDS011;22472;50.848;-1.216;2023-12-22T03:53:40;7.45;;;0.60;;
36445;SDS011;22472;50.848;-1.216;2023-12-22T03:56:07;5.40;;;0.47;;
36445;SDS011;22472;50.848;-1.216;2023-12-22T03:58:35;7.07;;;0.70;;
36445;SDS011;22472;50.848;-1.216;2023-12-22T04:01:02;4.43;;;0.47;;
36445;SDS011;22472;50.848;-1.216;2023-12-22T04:03:31;8.00;;;0.75;;
36445;SDS011;22472;50.848;-1.216;2023-12-22T04:05:58;6.05;;;0.40;;
36445;SDS011;22472;50.848;-1.216;2023-12-22T04:08:28;4.93;;;0.40;;
36445;SDS011;22472;50.848;-1.216;2023-12-22T04:10:55;4.47;;;0.55;;
36445;SDS011;22472;50.848;-1.216;2023-12-22T04:13:22;5.65;;;0.47;;
36445;SDS011;22472;50.848;-1.216;2023-12-22T04:15:49;4.15;;;0.52;;
36445;SDS011;22472;50.848;-1.216;2023-12-22T04:18:17;3.20;;;0.40;;
36445;SDS011;22472;50.848;-1.216;2023-12-22T04:20:45;3.20;;;0.40;;
36445;SDS011;22472;50.848;-1.216;2023-12-22T04:23:15;4.22;;;0.30;;
36445;SDS011;22472;50.848;-1.216;2023-12-22T04:25:42;4.18;;;0.30;;
36445;SDS011;22472;50.848;-1.216;2023-12-22T04:28:09;4.50;;;0.32;;
36445;SDS011;22472;50.848;-1.216;2023-12-22T04:30:36;6.10;;;0.40;;
36445;SDS011;22472;50.848;-1.216;2023-12-22T04:33:04;4.10;;;0.40;;
36445;SDS011;22472;50.848;-1.216;2023-12-22T04:35:31;4.60;;;0.60;;
36445;SDS011;22472;50.848;-1.216;2023-12-22T04:37:59;7.38;;;0.50;;
36445;SDS011;22472;50.848;-1.216;2023-12-22T04:40:27;5.72;;;0.30;;
36445;SDS011;22472;50.848;-1.216;2023-12-22T04:42:54;3.33;;;0.35;;
36445;SDS011;22472;50.848;-1.216;2023-12-22T04:45:21;4.70;;;0.35;;
36445;SDS011;22472;50.848;-1.216;2023-12-22T04:47:48;5.00;;;0.32;;
36445;SDS011;22472;50.848;-1.216;2023-12-22T04:50:16;5.05;;;0.47;;
36445;SDS011;22472;50.848;-1.216;2023-12-22T04:52:43;6.13;;;0.40;;
36445;SDS011;22472;50.848;-1.216;2023-12-22T04:55:12;5.88;;;0.50;;
36445;SDS011;22472;50.848;-1.216;2023-12-22T04:57:40;3.88;;;0.32;;
36445;SDS011;22472;50.848;-1.216;2023-12-22T05:00:08;4.78;;;0.32;;
36445;SDS011;22472;50.848;-1.216;2023-12-22T05:02:35;4.03;;;0.40;;
36445;SDS011;22472;50.848;-1.216;2023-12-22T05:05:02;5.88;;;0.40;;
36445;SDS011;22472;50.848;-1.216;2023-12-22T05:07:30;6.38;;;0.60;;
36445;SDS011;22472;50.848;-1.216;2023-12-22T05:09:57;6.78;;;0.50;;
36445;SDS011;22472;50.848;-1.216;2023-12-22T05:12:25;6.07;;;0.50;;
36445;SDS011;22472;50.848;-1.216;2023-12-22T05:14:53;6.13;;;0.55;;
36445;SDS011;22472;50.848;-1.216;2023-12-22T05:17:20;5.50;;;0.50;;
36445;SDS011;22472;50.848;-1.216;2023-12-22T05:19:47;7.18;;;0.50;;
36445;SDS011;22472;50.848;-1.216;2023-12-22T05:22:15;3.85;;;0.68;;
36445;SDS011;22472;50.848;-1.216;2023-12-22T05:24:42;5.30;;;0.70;;
36445;SDS011;22472;50.848;-1.216;2023-12-22T05:27:09;5.88;;;0.52;;
36445;SDS011;22472;50.848;-1.216;2023-12-22T05:29:38;7.95;;;0.70;;
36445;SDS011;22472;50.848;-1.216;2023-12-22T05:32:05;7.15;;;0.55;;
36445;SDS011;22472;50.848;-1.216;2023-12-22T05:34:33;11.85;;;1.10;;
36445;SDS011;22472;50.848;-1.216;2023-12-22T05:37:01;4.72;;;0.70;;
36445;SDS011;22472;50.848;-1.216;2023-12-22T05:39:29;11.02;;;1.00;;
36445;SDS011;22472;50.848;-1.216;2023-12-22T05:41:57;6.10;;;0.70;;
36445;SDS011;22472;50.848;-1.216;2023-12-22T05:44:24;7.78;;;0.50;;
36445;SDS011;22472;50.848;-1.216;2023-12-22T05:46:55;7.85;;;0.70;;
36445;SDS011;22472;50.848;-1.216;2023-12-22T05:49:23;6.65;;;0.73;;
36445;SDS011;22472;50.848;-1.216;2023-12-22T05:51:50;5.93;;;0.80;;
36445;SDS011;22472;50.848;-1.216;2023-12-22T05:54:18;7.03;;;0.65;;
36445;SDS011;22472;50.848;-1.216;2023-12-22T05:56:45;4.90;;;0.47;;
36445;SDS011;22472;50.848;-1.216;2023-12-22T05:59:12;9.07;;;0.98;;
36445;SDS011;22472;50.848;-1.216;2023-12-22T06:01:40;7.95;;;0.70;;
36445;SDS011;22472;50.848;-1.216;2023-12-22T06:04:08;9.27;;;0.60;;
36445;SDS011;22472;50.848;-1.216;2023-12-22T06:06:36;7.95;;;0.63;;
36445;SDS011;22472;50.848;-1.216;2023-12-22T06:09:03;7.65;;;0.80;;
36445;SDS011;22472;50.848;-1.216;2023-12-22T06:11:30;8.63;;;0.75;;
36445;SDS011;22472;50.848;-1.216;2023-12-22T06:13:57;7.10;;;0.70;;
36445;SDS011;22472;50.848;-1.216;2023-12-22T06:16:25;6.40;;;0.65;;
36445;SDS011;22472;50.848;-1.216;2023-12-22T06:18:52;7.05;;;0.65;;
36445;SDS011;22472;50.848;-1.216;2023-12-22T06:21:21;4.50;;;0.65;;
36445;SDS011;22472;50.848;-1.216;2023-12-22T06:23:48;5.43;;;0.60;;
36445;SDS011;22472;50.848;-1.216;2023-12-22T06:26:15;5.97;;;0.70;;
36445;SDS011;22472;50.848;-1.216;2023-12-22T06:28:42;7.50;;;0.70;;
36445;SDS011;22472;50.848;-1.216;2023-12-22T06:31:16;6.60;;;0.75;;
36445;SDS011;22472;50.848;-1.216;2023-12-22T06:33:45;5.45;;;0.55;;
36445;SDS011;22472;50.848;-1.216;2023-12-22T06:36:17;6.28;;;0.63;;
36445;SDS011;22472;50.848;-1.216;2023-12-22T06:38:46;8.20;;;0.98;;
36445;SDS011;22472;50.848;-1.216;2023-12-22T06:41:20;6.43;;;0.70;;
36445;SDS011;22472;50.848;-1.216;2023-12-22T06:43:48;9.27;;;0.80;;
36445;SDS011;22472;50.848;-1.216;2023-12-22T06:46:16;6.68;;;0.70;;
36445;SDS011;22472;50.848;-1.216;2023-12-22T06:48:43;6.10;;;0.75;;
36445;SDS011;22472;50.848;-1.216;2023-12-22T06:51:16;6.80;;;0.70;;
36445;SDS011;22472;50.848;-1.216;2023-12-22T06:53:44;7.22;;;1.00;;
36445;SDS011;22472;50.848;-1.216;2023-12-22T06:56:16;8.30;;;0.85;;
36445;SDS011;22472;50.848;-1.216;2023-12-22T06:58:43;7.60;;;0.85;;
36445;SDS011;22472;50.848;-1.216;2023-12-22T07:01:12;7.20;;;1.08;;
36445;SDS011;22472;50.848;-1.216;2023-12-22T07:03:39;8.05;;;1.00;;
36445;SDS011;22472;50.848;-1.216;2023-12-22T07:06:06;9.77;;;1.00;;
36445;SDS011;22472;50.848;-1.216;2023-12-22T07:08:33;10.25;;;1.25;;
36445;SDS011;22472;50.848;-1.216;2023-12-22T07:11:01;7.55;;;0.57;;
36445;SDS011;22472;50.848;-1.216;2023-12-22T07:13:29;8.32;;;1.00;;
36445;SDS011;22472;50.848;-1.216;2023-12-22T07:15:55;7.28;;;1.20;;
36445;SDS011;22472;50.848;-1.216;2023-12-22T07:18:22;8.85;;;0.82;;
36445;SDS011;22472;50.848;-1.216;2023-12-22T07:20:50;9.85;;;1.20;;
36445;SDS011;22472;50.848;-1.216;2023-12-22T07:23:17;8.88;;;1.00;;
36445;SDS011;22472;50.848;-1.216;2023-12-22T07:25:44;11.05;;;1.30;;
36445;SDS011;22472;50.848;-1.216;2023-12-22T07:28:12;7.50;;;0.93;;
36445;SDS011;22472;50.848;-1.216;2023-12-22T07:30:42;10.80;;;1.40;;
36445;SDS011;22472;50.848;-1.216;2023-12-22T07:33:09;12.38;;;1.83;;
36445;SDS011;22472;50.848;-1.216;2023-12-22T07:35:36;9.82;;;1.27;;
36445;SDS011;22472;50.848;-1.216;2023-12-22T07:38:03;15.82;;;1.55;;
36445;SDS011;22472;50.848;-1.216;2023-12-22T07:40:31;10.20;;;1.30;;
36445;SDS011;22472;50.848;-1.216;2023-12-22T07:42:58;13.40;;;2.08;;
36445;SDS011;22472;50.848;-1.216;2023-12-22T07:45:25;15.02;;;2.30;;
36445;SDS011;22472;50.848;-1.216;2023-12-22T07:47:55;18.65;;;1.95;;
36445;SDS011;22472;50.848;-1.216;2023-12-22T07:50:22;12.75;;;2.25;;
36445;SDS011;22472;50.848;-1.216;2023-12-22T07:52:49;20.33;;;2.33;;
36445;SDS011;22472;50.848;-1.216;2023-12-22T07:55:16;14.55;;;1.90;;
36445;SDS011;22472;50.848;-1.216;2023-12-22T07:57:43;15.98;;;2.03;;
36445;SDS011;22472;50.848;-1.216;2023-12-22T08:00:11;22.33;;;2.83;;
36445;SDS011;22472;50.848;-1.216;2023-12-22T08:02:39;18.05;;;2.53;;
36445;SDS011;22472;50.848;-1.216;2023-12-22T08:05:07;15.48;;;2.13;;
36445;SDS011;22472;50.848;-1.216;2023-12-22T08:07:35;17.30;;;2.10;;
36445;SDS011;22472;50.848;-1.216;2023-12-22T08:10:03;18.58;;;2.53;;
36445;SDS011;22472;50.848;-1.216;2023-12-22T08:12:31;12.70;;;2.08;;
36445;SDS011;22472;50.848;-1.216;2023-12-22T08:14:58;13.07;;;2.10;;
36445;SDS011;22472;50.848;-1.216;2023-12-22T08:17:26;18.73;;;2.30;;
36445;SDS011;22472;50.848;-1.216;2023-12-22T08:19:53;18.17;;;2.35;;
36445;SDS011;22472;50.848;-1.216;2023-12-22T08:22:22;14.85;;;2.28;;
36445;SDS011;22472;50.848;-1.216;2023-12-22T08:24:50;15.55;;;2.53;;
36445;SDS011;22472;50.848;-1.216;2023-12-22T08:27:17;16.40;;;2.80;;
36445;SDS011;22472;50.848;-1.216;2023-12-22T08:29:44;17.95;;;2.65;;
36445;SDS011;22472;50.848;-1.216;2023-12-22T08:32:11;16.50;;;2.40;;
36445;SDS011;22472;50.848;-1.216;2023-12-22T08:34:39;16.58;;;2.08;;
36445;SDS011;22472;50.848;-1.216;2023-12-22T08:37:06;15.75;;;2.75;;
36445;SDS011;22472;50.848;-1.216;2023-12-22T08:39:34;20.67;;;2.47;;
36445;SDS011;22472;50.848;-1.216;2023-12-22T08:42:02;21.92;;;3.40;;
36445;SDS011;22472;50.848;-1.216;2023-12-22T08:44:29;16.90;;;2.45;;
36445;SDS011;22472;50.848;-1.216;2023-12-22T08:46:56;20.33;;;2.80;;
36445;SDS011;22472;50.848;-1.216;2023-12-22T08:49:24;23.38;;;3.30;;
36445;SDS011;22472;50.848;-1.216;2023-12-22T08:51:51;17.05;;;2.30;;
36445;SDS011;22472;50.848;-1.216;2023-12-22T08:54:18;15.65;;;2.50;;
36445;SDS011;22472;50.848;-1.216;2023-12-22T08:56:47;14.75;;;2.38;;
36445;SDS011;22472;50.848;-1.216;2023-12-22T08:59:14;15.40;;;2.25;;
36445;SDS011;22472;50.848;-1.216;2023-12-22T09:01:41;16.23;;;2.33;;
36445;SDS011;22472;50.848;-1.216;2023-12-22T09:04:09;15.25;;;2.17;;
36445;SDS011;22472;50.848;-1.216;2023-12-22T09:06:37;18.83;;;2.83;;
36445;SDS011;22472;50.848;-1.216;2023-12-22T09:09:04;18.77;;;2.38;;
36445;SDS011;22472;50.848;-1.216;2023-12-22T09:11:32;18.52;;;2.67;;
36445;SDS011;22472;50.848;-1.216;2023-12-22T09:14:01;15.27;;;2.67;;
36445;SDS011;22472;50.848;-1.216;2023-12-22T09:16:28;12.75;;;2.20;;
36445;SDS011;22472;50.848;-1.216;2023-12-22T09:18:56;15.40;;;2.17;;
36445;SDS011;22472;50.848;-1.216;2023-12-22T09:21:23;16.95;;;2.92;;
36445;SDS011;22472;50.848;-1.216;2023-12-22T09:23:51;19.00;;;3.25;;
36445;SDS011;22472;50.848;-1.216;2023-12-22T09:26:18;22.02;;;2.83;;
36445;SDS011;22472;50.848;-1.216;2023-12-22T09:28:46;23.40;;;3.00;;
36445;SDS011;22472;50.848;-1.216;2023-12-22T09:31:14;18.08;;;2.60;;
36445;SDS011;22472;50.848;-1.216;2023-12-22T09:33:42;14.52;;;2.88;;
36445;SDS011;22472;50.848;-1.216;2023-12-22T09:36:09;20.52;;;3.10;;
36445;SDS011;22472;50.848;-1.216;2023-12-22T09:38:37;18.10;;;2.97;;
36445;SDS011;22472;50.848;-1.216;2023-12-22T09:41:04;13.80;;;2.75;;
36445;SDS011;22472;50.848;-1.216;2023-12-22T09:43:31;9.77;;;1.80;;
36445;SDS011;22472;50.848;-1.216;2023-12-22T09:46:02;13.70;;;2.50;;
36445;SDS011;22472;50.848;-1.216;2023-12-22T09:48:31;14.25;;;2.42;;
36445;SDS011;22472;50.848;-1.216;2023-12-22T09:51:00;14.32;;;2.45;;
36445;SDS011;22472;50.848;-1.216;2023-12-22T09:53:29;16.45;;;2.75;;
36445;SDS011;22472;50.848;-1.216;2023-12-22T09:55:57;21.45;;;2.55;;
36445;SDS011;22472;50.848;-1.216;2023-12-22T09:58:25;17.42;;;2.47;;
36445;SDS011;22472;50.848;-1.216;2023-12-22T10:00:52;15.35;;;2.38;;
36445;SDS011;22472;50.848;-1.216;2023-12-22T10:03:20;15.93;;;2.75;;
36445;SDS011;22472;50.848;-1.216;2023-12-22T10:05:50;14.77;;;2.33;;
36445;SDS011;22472;50.848;-1.216;2023-12-22T10:08:18;18.98;;;2.58;;
36445;SDS011;22472;50.848;-1.216;2023-12-22T10:10:45;18.50;;;2.70;;
36445;SDS011;22472;50.848;-1.216;2023-12-22T10:13:14;18.80;;;2.92;;
36445;SDS011;22472;50.848;-1.216;2023-12-22T10:15:41;14.55;;;2.55;;
36445;SDS011;22472;50.848;-1.216;2023-12-22T10:18:10;16.00;;;2.38;;
36445;SDS011;22472;50.848;-1.216;2023-12-22T10:20:38;18.25;;;3.03;;
36445;SDS011;22472;50.848;-1.216;2023-12-22T10:23:06;20.92;;;3.35;;
36445;SDS011;22472;50.848;-1.216;2023-12-22T10:25:33;16.27;;;2.70;;
36445;SDS011;22472;50.848;-1.216;2023-12-22T10:28:01;19.90;;;3.08;;
36445;SDS011;22472;50.848;-1.216;2023-12-22T10:30:28;20.58;;;2.42;;
36445;SDS011;22472;50.848;-1.216;2023-12-22T10:32:55;16.85;;;2.97;;
36445;SDS011;22472;50.848;-1.216;2023-12-22T10:35:23;20.13;;;2.70;;
36445;SDS011;22472;50.848;-1.216;2023-12-22T10:37:50;17.58;;;2.55;;
36445;SDS011;22472;50.848;-1.216;2023-12-22T10:40:20;13.57;;;1.70;;
36445;SDS011;22472;50.848;-1.216;2023-12-22T10:42:48;11.80;;;2.20;;
36445;SDS011;22472;50.848;-1.216;2023-12-22T10:45:15;16.45;;;2.67;;
36445;SDS011;22472;50.848;-1.216;2023-12-22T10:47:42;16.88;;;2.50;;
36445;SDS011;22472;50.848;-1.216;2023-12-22T10:50:11;21.65;;;2.78;;
36445;SDS011;22472;50.848;-1.216;2023-12-22T10:52:39;11.00;;;2.05;;
36445;SDS011;22472;50.848;-1.216;2023-12-22T10:55:07;13.15;;;2.22;;
36445;SDS011;22472;50.848;-1.216;2023-12-22T10:57:37;14.98;;;2.28;;
36445;SDS011;22472;50.848;-1.216;2023-12-22T11:00:05;16.35;;;2.25;;
36445;SDS011;22472;50.848;-1.216;2023-12-22T11:02:34;14.70;;;2.40;;
36445;SDS011;22472;50.848;-1.216;2023-12-22T11:05:02;14.90;;;2.15;;
36445;SDS011;22472;50.848;-1.216;2023-12-22T11:07:30;11.18;;;1.75;;
36445;SDS011;22472;50.848;-1.216;2023-12-22T11:10:01;15.00;;;2.15;;
36445;SDS011;22472;50.848;-1.216;2023-12-22T11:12:29;12.38;;;2.38;;
36445;SDS011;22472;50.848;-1.216;2023-12-22T11:14:59;18.27;;;2.88;;
36445;SDS011;22472;50.848;-1.216;2023-12-22T11:17:28;17.00;;;2.00;;
36445;SDS011;22472;50.848;-1.216;2023-12-22T11:19:55;15.68;;;2.72;;
36445;SDS011;22472;50.848;-1.216;2023-12-22T11:22:23;15.13;;;2.20;;
36445;SDS011;22472;50.848;-1.216;2023-12-22T11:24:51;15.77;;;2.45;;
36445;SDS011;22472;50.848;-1.216;2023-12-22T11:27:18;14.25;;;2.08;;
36445;SDS011;22472;50.848;-1.216;2023-12-22T11:29:46;13.60;;;2.20;;
36445;SDS011;22472;50.848;-1.216;2023-12-22T11:32:16;13.32;;;1.83;;
36445;SDS011;22472;50.848;-1.216;2023-12-22T11:34:44;16.90;;;2.35;;
36445;SDS011;22472;50.848;-1.216;2023-12-22T11:37:12;14.25;;;2.53;;
36445;SDS011;22472;50.848;-1.216;2023-12-22T11:39:39;14.10;;;2.20;;
36445;SDS011;22472;50.848;-1.216;2023-12-22T11:42:06;15.43;;;2.33;;
36445;SDS011;22472;50.848;-1.216;2023-12-22T11:44:35;15.30;;;2.33;;
36445;SDS011;22472;50.848;-1.216;2023-12-22T11:47:02;16.40;;;2.42;;
36445;SDS011;22472;50.848;-1.216;2023-12-22T11:49:32;15.15;;;2.13;;
36445;SDS011;22472;50.848;-1.216;2023-12-22T11:52:09;13.55;;;2.40;;
36445;SDS011;22472;50.848;-1.216;2023-12-22T11:54:48;13.55;;;2.30;;
36445;SDS011;22472;50.848;-1.216;2023-12-22T11:57:29;14.65;;;1.95;;
36445;SDS011;22472;50.848;-1.216;2023-12-22T11:59:56;13.43;;;2.38;;
36445;SDS011;22472;50.848;-1.216;2023-12-22T12:02:24;12.80;;;2.17;;
36445;SDS011;22472;50.848;-1.216;2023-12-22T12:04:53;11.18;;;1.80;;
36445;SDS011;22472;50.848;-1.216;2023-12-22T12:07:39;11.90;;;2.17;;
36445;SDS011;22472;50.848;-1.216;2023-12-22T12:10:09;13.82;;;2.13;;
36445;SDS011;22472;50.848;-1.216;2023-12-22T12:12:36;13.65;;;2.25;;
36445;SDS011;22472;50.848;-1.216;2023-12-22T12:15:06;12.77;;;2.10;;
36445;SDS011;22472;50.848;-1.216;2023-12-22T12:17:37;14.47;;;2.40;;
36445;SDS011;22472;50.848;-1.216;2023-12-22T12:20:07;18.10;;;2.58;;
36445;SDS011;22472;50.848;-1.216;2023-12-22T12:22:35;17.35;;;2.50;;
36445;SDS011;22472;50.848;-1.216;2023-12-22T12:25:06;16.33;;;2.22;;
36445;SDS011;22472;50.848;-1.216;2023-12-22T12:27:35;18.05;;;3.03;;
36445;SDS011;22472;50.848;-1.216;2023-12-22T12:30:10;16.52;;;2.15;;
36445;SDS011;22472;50.848;-1.216;2023-12-22T12:32:38;12.65;;;2.15;;
36445;SDS011;22472;50.848;-1.216;2023-12-22T12:35:07;15.05;;;2.45;;
36445;SDS011;22472;50.848;-1.216;2023-12-22T12:37:35;15.13;;;2.10;;
36445;SDS011;22472;50.848;-1.216;2023-12-22T12:40:03;17.15;;;2.50;;
36445;SDS011;22472;50.848;-1.216;2023-12-22T12:45:01;17.95;;;2.22;;
36445;SDS011;22472;50.848;-1.216;2023-12-22T12:47:29;14.18;;;2.60;;
36445;SDS011;22472;50.848;-1.216;2023-12-22T12:49:57;8.93;;;1.42;;
36445;SDS011;22472;50.848;-1.216;2023-12-22T12:52:26;14.85;;;2.30;;
36445;SDS011;22472;50.848;-1.216;2023-12-22T12:54:53;15.30;;;2.30;;
36445;SDS011;22472;50.848;-1.216;2023-12-22T12:57:21;14.65;;;2.35;;
36445;SDS011;22472;50.848;-1.216;2023-12-22T12:59:49;14.45;;;2.30;;
36445;SDS011;22472;50.848;-1.216;2023-12-22T13:02:16;13.77;;;1.85;;
36445;SDS011;22472;50.848;-1.216;2023-12-22T13:04:44;15.35;;;2.30;;
36445;SDS011;22472;50.848;-1.216;2023-12-22T13:07:11;11.20;;;1.42;;
36445;SDS011;22472;50.848;-1.216;2023-12-22T13:09:40;13.18;;;2.10;;
36445;SDS011;22472;50.848;-1.216;2023-12-22T13:12:10;8.52;;;1.35;;
36445;SDS011;22472;50.848;-1.216;2023-12-22T13:14:38;9.52;;;1.90;;
36445;SDS011;22472;50.848;-1.216;2023-12-22T13:17:05;13.73;;;1.90;;
36445;SDS011;22472;50.848;-1.216;2023-12-22T13:19:32;13.80;;;2.13;;
36445;SDS011;22472;50.848;-1.216;2023-12-22T13:22:00;12.43;;;2.10;;
36445;SDS011;22472;50.848;-1.216;2023-12-22T13:24:27;13.05;;;2.03;;
36445;SDS011;22472;50.848;-1.216;2023-12-22T13:27:02;13.10;;;2.13;;
36445;SDS011;22472;50.848;-1.216;2023-12-22T13:29:41;12.27;;;1.98;;
36445;SDS011;22472;50.848;-1.216;2023-12-22T13:32:08;13.45;;;1.70;;
36445;SDS011;22472;50.848;-1.216;2023-12-22T13:34:36;16.30;;;2.15;;
36445;SDS011;22472;50.848;-1.216;2023-12-22T13:37:03;13.10;;;2.00;;
36445;SDS011;22472;50.848;-1.216;2023-12-22T13:39:31;15.68;;;1.73;;
36445;SDS011;22472;50.848;-1.216;2023-12-22T13:41:58;13.30;;;1.30;;
36445;SDS011;22472;50.848;-1.216;2023-12-22T13:44:26;11.45;;;2.00;;
36445;SDS011;22472;50.848;-1.216;2023-12-22T13:46:54;15.63;;;2.33;;
36445;SDS011;22472;50.848;-1.216;2023-12-22T13:49:21;14.57;;;1.88;;
36445;SDS011;22472;50.848;-1.216;2023-12-22T13:51:48;9.65;;;1.55;;
36445;SDS011;22472;50.848;-1.216;2023-12-22T13:54:15;15.48;;;2.33;;
36445;SDS011;22472;50.848;-1.216;2023-12-22T13:56:43;8.68;;;1.45;;
36445;SDS011;22472;50.848;-1.216;2023-12-22T13:59:11;11.90;;;1.88;;
36445;SDS011;22472;50.848;-1.216;2023-12-22T14:01:40;10.00;;;1.67;;
36445;SDS011;22472;50.848;-1.216;2023-12-22T14:04:07;13.45;;;1.80;;
36445;SDS011;22472;50.848;-1.216;2023-12-22T14:06:35;13.25;;;2.22;;
36445;SDS011;22472;50.848;-1.216;2023-12-22T14:09:04;10.63;;;1.83;;
36445;SDS011;22472;50.848;-1.216;2023-12-22T14:11:32;10.95;;;1.73;;
36445;SDS011;22472;50.848;-1.216;2023-12-22T14:13:59;12.30;;;1.83;;
36445;SDS011;22472;50.848;-1.216;2023-12-22T14:16:26;10.90;;;1.30;;
36445;SDS011;22472;50.848;-1.216;2023-12-22T14:18:54;7.72;;;1.20;;
36445;SDS011;22472;50.848;-1.216;2023-12-22T14:21:22;15.63;;;1.65;;
36445;SDS011;22472;50.848;-1.216;2023-12-22T14:23:49;16.85;;;1.77;;
36445;SDS011;22472;50.848;-1.216;2023-12-22T14:26:16;13.43;;;1.80;;
36445;SDS011;22472;50.848;-1.216;2023-12-22T14:28:43;10.15;;;1.77;;
36445;SDS011;22472;50.848;-1.216;2023-12-22T14:31:15;11.98;;;1.33;;
36445;SDS011;22472;50.848;-1.216;2023-12-22T14:33:42;8.57;;;1.45;;
36445;SDS011;22472;50.848;-1.216;2023-12-22T14:36:11;13.05;;;1.90;;
36445;SDS011;22472;50.848;-1.216;2023-12-22T14:38:38;13.05;;;1.48;;
36445;SDS011;22472;50.848;-1.216;2023-12-22T14:41:06;11.68;;;1.92;;